sensor_id;sensor_type;location;lat;lon;timestamp;pressure;altitude;pressure_sealevel;temperature;humidity
52947;BME280;45776;40.400;17.260;2022-08-20T11:22:48;100661.50;;;30.88;100.00
52947;BME280;45776;40.400;17.260;2022-08-20T11:25:14;100656.53;;;30.98;100.00
52947;BME280;45776;40.400;17.260;2022-08-20T11:27:43;100645.81;;;30.64;100.00
52947;BME280;45776;40.400;17.260;2022-08-20T11:30:12;100645.47;;;30.88;100.00
52947;BME280;45776;40.400;17.260;2022-08-20T11:32:38;100650.06;;;31.20;100.00
52947;BME280;45776;40.400;17.260;2022-08-20T11:35:04;100649.38;;;30.98;100.00
52947;BME280;45776;40.400;17.260;2022-08-20T11:37:31;100650.94;;;31.03;100.00
52947;BME280;45776;40.400;17.260;2022-08-20T11:39:57;100655.13;;;31.58;100.00
52947;BME280;45776;40.400;17.260;2022-08-20T11:42:22;100656.13;;;31.39;100.00
52947;BME280;45776;40.400;17.260;2022-08-20T11:44:47;100659.03;;;31.19;100.00
52947;BME280;45776;40.400;17.260;2022-08-20T11:47:27;100644.81;;;31.50;97.36
52947;BME280;45776;40.400;17.260;2022-08-20T11:50:17;100649.78;;;31.90;98.23
52947;BME280;45776;40.400;17.260;2022-08-20T11:52:43;100647.94;;;31.58;96.58
52947;BME280;45776;40.400;17.260;2022-08-20T11:55:12;100644.41;;;31.58;100.00
52947;BME280;45776;40.400;17.260;2022-08-20T11:57:44;100640.97;;;32.04;100.00
52947;BME280;45776;40.400;17.260;2022-08-20T12:00:21;100647.34;;;31.53;100.00
52947;BME280;45776;40.400;17.260;2022-08-20T12:02:48;100642.25;;;31.33;100.00
52947;BME280;45776;40.400;17.260;2022-08-20T12:05:16;100635.19;;;31.96;100.00
52947;BME280;45776;40.400;17.260;2022-08-20T12:07:42;100642.22;;;31.66;100.00
52947;BME280;45776;40.400;17.260;2022-08-20T12:10:08;100643.06;;;31.83;100.00
52947;BME280;45776;40.400;17.260;2022-08-20T12:12:35;100654.19;;;30.92;100.00
52947;BME280;45776;40.400;17.260;2022-08-20T12:15:01;100643.00;;;31.19;100.00
52947;BME280;45776;40.400;17.260;2022-08-20T12:17:29;100645.22;;;30.40;100.00
52947;BME280;45776;40.400;17.260;2022-08-20T12:19:58;100649.69;;;30.40;100.00
52947;BME280;45776;40.400;17.260;2022-08-20T12:22:25;100648.81;;;29.66;100.00
52947;BME280;45776;40.400;17.260;2022-08-20T12:24:54;100637.41;;;29.81;100.00
52947;BME280;45776;40.400;17.260;2022-08-20T12:27:20;100632.03;;;30.37;100.00
52947;BME280;45776;40.400;17.260;2022-08-20T12:29:49;100634.28;;;29.90;100.00
52947;BME280;45776;40.400;17.260;2022-08-20T12:32:16;100632.63;;;29.88;100.00
52947;BME280;45776;40.400;17.260;2022-08-20T12:34:42;100648.22;;;29.40;100.00
52947;BME280;45776;40.400;17.260;2022-08-20T12:37:12;100648.75;;;29.48;100.00
52947;BME280;45776;40.400;17.260;2022-08-20T12:39:41;100637.94;;;29.31;100.00
52947;BME280;45776;40.400;17.260;2022-08-20T12:42:07;100640.53;;;29.13;100.00
52947;BME280;45776;40.400;17.260;2022-08-20T12:44:33;100632.16;;;29.02;100.00
52947;BME280;45776;40.400;17.260;2022-08-20T12:47:17;100636.88;;;28.95;100.00
52947;BME280;45776;40.400;17.260;2022-08-20T12:49:46;100632.25;;;29.19;100.00
52947;BME280;45776;40.400;17.260;2022-08-20T12:52:13;100628.47;;;29.63;100.00
52947;BME280;45776;40.400;17.260;2022-08-20T12:54:39;100638.09;;;29.08;100.00
52947;BME280;45776;40.400;17.260;2022-08-20T12:57:05;100625.50;;;28.91;100.00
52947;BME280;45776;40.400;17.260;2022-08-20T12:59:31;100623.06;;;29.06;100.00
52947;BME280;45776;40.400;17.260;2022-08-20T13:01:57;100635.44;;;28.88;100.00
52947;BME280;45776;40.400;17.260;2022-08-20T13:04:23;100640.13;;;28.83;100.00
52947;BME280;45776;40.400;17.260;2022-08-20T13:06:48;100635.91;;;29.17;100.00
52947;BME280;45776;40.400;17.260;2022-08-20T13:09:15;100637.50;;;29.21;100.00
52947;BME280;45776;40.400;17.260;2022-08-20T13:11:41;100635.06;;;29.56;100.00
52947;BME280;45776;40.400;17.260;2022-08-20T13:14:06;100632.91;;;29.24;100.00
52947;BME280;45776;40.400;17.260;2022-08-20T13:16:31;100637.09;;;29.87;100.00
52947;BME280;45776;40.400;17.260;2022-08-20T13:18:57;100618.84;;;30.69;100.00
52947;BME280;45776;40.400;17.260;2022-08-20T13:21:23;100618.63;;;30.90;100.00
52947;BME280;45776;40.400;17.260;2022-08-20T13:23:48;100629.16;;;31.10;100.00
52947;BME280;45776;40.400;17.260;2022-08-20T13:26:14;100633.56;;;31.11;100.00
52947;BME280;45776;40.400;17.260;2022-08-20T13:28:39;100625.84;;;31.39;100.00
52947;BME280;45776;40.400;17.260;2022-08-20T13:31:05;100628.72;;;31.84;100.00
52947;BME280;45776;40.400;17.260;2022-08-20T13:33:30;100630.94;;;31.59;100.00
52947;BME280;45776;40.400;17.260;2022-08-20T13:35:56;100626.94;;;31.68;100.00
52947;BME280;45776;40.400;17.260;2022-08-20T13:38:22;100625.19;;;31.67;100.00
52947;BME280;45776;40.400;17.260;2022-08-20T13:40:48;100630.75;;;31.46;100.00
52947;BME280;45776;40.400;17.260;2022-08-20T13:43:14;100628.06;;;30.97;100.00
52947;BME280;45776;40.400;17.260;2022-08-20T13:45:40;100627.47;;;30.74;100.00
52947;BME280;45776;40.400;17.260;2022-08-20T13:48:06;100636.09;;;30.44;100.00
52947;BME280;45776;40.400;17.260;2022-08-20T13:50:32;100629.25;;;30.38;100.00
52947;BME280;45776;40.400;17.260;2022-08-20T13:52:58;100625.97;;;30.33;100.00
52947;BME280;45776;40.400;17.260;2022-08-20T13:55:25;100627.91;;;30.12;100.00
52947;BME280;45776;40.400;17.260;2022-08-20T13:57:52;100625.88;;;30.00;100.00
52947;BME280;45776;40.400;17.260;2022-08-20T14:00:22;100634.50;;;29.86;100.00
52947;BME280;45776;40.400;17.260;2022-08-20T14:02:48;100631.47;;;29.94;100.00
52947;BME280;45776;40.400;17.260;2022-08-20T14:05:13;100619.34;;;30.05;100.00
52947;BME280;45776;40.400;17.260;2022-08-20T14:07:40;100624.13;;;29.99;100.00
52947;BME280;45776;40.400;17.260;2022-08-20T14:10:10;100625.72;;;30.20;100.00
52947;BME280;45776;40.400;17.260;2022-08-20T14:12:36;100617.78;;;30.19;100.00
52947;BME280;45776;40.400;17.260;2022-08-20T14:15:02;100620.44;;;29.82;100.00
52947;BME280;45776;40.400;17.260;2022-08-20T14:17:30;100629.59;;;29.96;100.00
52947;BME280;45776;40.400;17.260;2022-08-20T14:20:06;100629.31;;;29.83;100.00
52947;BME280;45776;40.400;17.260;2022-08-20T14:22:33;100622.47;;;29.58;100.00
52947;BME280;45776;40.400;17.260;2022-08-20T14:24:59;100620.84;;;29.36;100.00
52947;BME280;45776;40.400;17.260;2022-08-20T14:27:29;100613.69;;;29.37;100.00
52947;BME280;45776;40.400;17.260;2022-08-20T14:29:55;100613.13;;;29.09;100.00
52947;BME280;45776;40.400;17.260;2022-08-20T14:32:21;100606.72;;;28.94;100.00
52947;BME280;45776;40.400;17.260;2022-08-20T14:34:46;100613.41;;;28.62;100.00
52947;BME280;45776;40.400;17.260;2022-08-20T14:37:22;100606.78;;;28.52;100.00
52947;BME280;45776;40.400;17.260;2022-08-20T14:39:49;100604.66;;;28.60;100.00
52947;BME280;45776;40.400;17.260;2022-08-20T14:42:15;100608.28;;;28.57;100.00
52947;BME280;45776;40.400;17.260;2022-08-20T14:44:41;100620.47;;;28.63;100.00
52947;BME280;45776;40.400;17.260;2022-08-20T14:47:27;100628.13;;;28.29;100.00
52947;BME280;45776;40.400;17.260;2022-08-20T14:49:54;100618.03;;;28.38;100.00
52947;BME280;45776;40.400;17.260;2022-08-20T14:52:22;100617.81;;;28.42;100.00
52947;BME280;45776;40.400;17.260;2022-08-20T14:54:49;100619.53;;;28.23;100.00
52947;BME280;45776;40.400;17.260;2022-08-20T14:57:16;100613.00;;;28.30;100.00
52947;BME280;45776;40.400;17.260;2022-08-20T14:59:41;100607.19;;;28.42;100.00
52947;BME280;45776;40.400;17.260;2022-08-20T15:02:08;100605.78;;;28.54;100.00
52947;BME280;45776;40.400;17.260;2022-08-20T15:04:35;100607.63;;;28.52;100.00
52947;BME280;45776;40.400;17.260;2022-08-20T15:07:02;100607.94;;;28.24;100.00
52947;BME280;45776;40.400;17.260;2022-08-20T15:09:33;100616.16;;;28.40;100.00
52947;BME280;45776;40.400;17.260;2022-08-20T15:11:58;100619.88;;;28.36;100.00
52947;BME280;45776;40.400;17.260;2022-08-20T15:14:25;100606.72;;;28.53;100.00
52947;BME280;45776;40.400;17.260;2022-08-20T15:16:52;100614.34;;;28.40;100.00
52947;BME280;45776;40.400;17.260;2022-08-20T15:19:17;100604.34;;;28.45;100.00
52947;BME280;45776;40.400;17.260;2022-08-20T15:21:43;100619.94;;;28.55;100.00
52947;BME280;45776;40.400;17.260;2022-08-20T15:24:08;100632.72;;;28.46;100.00
52947;BME280;45776;40.400;17.260;2022-08-20T15:26:34;100629.25;;;28.44;100.00
52947;BME280;45776;40.400;17.260;2022-08-20T15:28:59;100627.06;;;28.33;100.00
52947;BME280;45776;40.400;17.260;2022-08-20T15:31:25;100624.09;;;28.41;100.00
52947;BME280;45776;40.400;17.260;2022-08-20T15:33:50;100624.47;;;28.53;100.00
52947;BME280;45776;40.400;17.260;2022-08-20T15:36:16;100626.56;;;28.46;100.00
52947;BME280;45776;40.400;17.260;2022-08-20T15:38:41;100631.69;;;28.51;100.00
52947;BME280;45776;40.400;17.260;2022-08-20T15:41:07;100623.63;;;28.31;100.00
52947;BME280;45776;40.400;17.260;2022-08-20T15:43:33;100623.88;;;28.03;100.00
52947;BME280;45776;40.400;17.260;2022-08-20T15:45:59;100627.16;;;28.10;100.00
52947;BME280;45776;40.400;17.260;2022-08-20T15:48:32;100606.59;;;28.13;100.00
52947;BME280;45776;40.400;17.260;2022-08-20T15:56:45;100633.94;;;28.17;100.00
52947;BME280;45776;40.400;17.260;2022-08-20T15:59:54;100628.03;;;28.10;100.00
52947;BME280;45776;40.400;17.260;2022-08-20T16:02:30;100634.91;;;28.16;100.00
52947;BME280;45776;40.400;17.260;2022-08-20T16:15:59;100634.34;;;28.08;100.00
52947;BME280;45776;40.400;17.260;2022-08-20T16:18:30;100628.88;;;28.11;100.00
52947;BME280;45776;40.400;17.260;2022-08-20T16:20:57;100633.50;;;28.06;100.00
52947;BME280;45776;40.400;17.260;2022-08-20T16:23:29;100635.53;;;27.99;100.00
52947;BME280;45776;40.400;17.260;2022-08-20T16:29:07;100626.72;;;27.98;100.00
52947;BME280;45776;40.400;17.260;2022-08-20T16:31:45;100622.53;;;28.15;100.00
52947;BME280;45776;40.400;17.260;2022-08-20T16:37:05;100624.16;;;28.40;100.00
52947;BME280;45776;40.400;17.260;2022-08-20T16:42:39;100626.28;;;28.52;100.00
52947;BME280;45776;40.400;17.260;2022-08-20T16:45:10;100633.47;;;29.12;100.00
52947;BME280;45776;40.400;17.260;2022-08-20T16:47:38;100630.34;;;29.42;100.00
52947;BME280;45776;40.400;17.260;2022-08-20T16:50:09;100635.34;;;30.05;100.00
52947;BME280;45776;40.400;17.260;2022-08-20T16:52:36;100633.63;;;29.85;100.00
52947;BME280;45776;40.400;17.260;2022-08-20T16:55:04;100625.91;;;29.98;100.00
52947;BME280;45776;40.400;17.260;2022-08-20T16:57:29;100631.13;;;30.01;100.00
52947;BME280;45776;40.400;17.260;2022-08-20T17:02:20;100630.25;;;29.82;100.00
52947;BME280;45776;40.400;17.260;2022-08-20T17:04:51;100623.13;;;30.19;100.00
52947;BME280;45776;40.400;17.260;2022-08-20T17:07:28;100625.75;;;30.38;100.00
52947;BME280;45776;40.400;17.260;2022-08-20T17:12:44;100621.66;;;30.48;100.00
52947;BME280;45776;40.400;17.260;2022-08-20T17:15:19;100636.72;;;30.14;100.00
52947;BME280;45776;40.400;17.260;2022-08-20T17:17:45;100635.84;;;29.96;100.00
52947;BME280;45776;40.400;17.260;2022-08-20T17:20:14;100639.94;;;29.46;100.00
52947;BME280;45776;40.400;17.260;2022-08-20T17:25:43;100638.44;;;28.80;100.00
52947;BME280;45776;40.400;17.260;2022-08-20T17:28:14;100638.28;;;28.62;100.00
52947;BME280;45776;40.400;17.260;2022-08-20T17:30:41;100642.28;;;28.73;100.00
52947;BME280;45776;40.400;17.260;2022-08-20T17:33:38;100639.88;;;28.67;100.00
52947;BME280;45776;40.400;17.260;2022-08-20T17:36:09;100647.59;;;28.52;100.00
52947;BME280;45776;40.400;17.260;2022-08-20T17:38:44;100646.97;;;28.45;100.00
52947;BME280;45776;40.400;17.260;2022-08-20T17:41:21;100647.06;;;28.44;100.00
52947;BME280;45776;40.400;17.260;2022-08-20T17:43:56;100651.28;;;28.27;100.00
52947;BME280;45776;40.400;17.260;2022-08-20T17:46:23;100660.16;;;28.28;100.00
52947;BME280;45776;40.400;17.260;2022-08-20T17:48:50;100661.31;;;28.21;100.00
52947;BME280;45776;40.400;17.260;2022-08-20T17:51:23;100667.16;;;28.08;100.00
52947;BME280;45776;40.400;17.260;2022-08-20T17:54:08;100669.63;;;28.13;100.00
52947;BME280;45776;40.400;17.260;2022-08-20T17:56:39;100682.25;;;27.62;100.00
52947;BME280;45776;40.400;17.260;2022-08-20T17:59:10;100681.50;;;27.58;100.00
52947;BME280;45776;40.400;17.260;2022-08-20T18:01:39;100684.44;;;27.50;100.00
52947;BME280;45776;40.400;17.260;2022-08-20T18:04:05;100684.44;;;27.50;100.00
52947;BME280;45776;40.400;17.260;2022-08-20T18:06:43;100691.97;;;27.37;100.00
52947;BME280;45776;40.400;17.260;2022-08-20T18:11:48;100699.13;;;27.61;100.00
52947;BME280;45776;40.400;17.260;2022-08-20T18:23:11;100708.25;;;27.28;100.00
52947;BME280;45776;40.400;17.260;2022-08-20T18:25:46;100718.47;;;27.40;100.00
52947;BME280;45776;40.400;17.260;2022-08-20T18:28:47;100725.25;;;27.49;100.00
52947;BME280;45776;40.400;17.260;2022-08-20T18:33:55;100725.41;;;27.45;100.00
52947;BME280;45776;40.400;17.260;2022-08-20T18:41:52;100740.56;;;26.92;100.00
52947;BME280;45776;40.400;17.260;2022-08-20T18:44:41;100737.41;;;27.06;100.00
52947;BME280;45776;40.400;17.260;2022-08-20T18:50:21;100744.91;;;27.20;100.00
52947;BME280;45776;40.400;17.260;2022-08-20T18:55:44;100735.97;;;27.22;100.00
52947;BME280;45776;40.400;17.260;2022-08-20T18:58:13;100739.25;;;27.29;100.00
52947;BME280;45776;40.400;17.260;2022-08-20T19:00:48;100737.09;;;27.15;100.00
52947;BME280;45776;40.400;17.260;2022-08-20T19:03:37;100748.16;;;27.03;100.00
52947;BME280;45776;40.400;17.260;2022-08-20T19:11:40;100758.22;;;27.20;100.00
52947;BME280;45776;40.400;17.260;2022-08-20T19:16:42;100759.91;;;26.96;100.00
52947;BME280;45776;40.400;17.260;2022-08-20T19:19:17;100762.63;;;26.94;100.00
52947;BME280;45776;40.400;17.260;2022-08-20T19:21:44;100768.03;;;26.91;100.00
52947;BME280;45776;40.400;17.260;2022-08-20T19:24:12;100768.94;;;26.91;100.00
52947;BME280;45776;40.400;17.260;2022-08-20T19:26:45;100768.03;;;26.91;100.00
52947;BME280;45776;40.400;17.260;2022-08-20T19:29:18;100769.56;;;26.71;100.00
52947;BME280;45776;40.400;17.260;2022-08-20T19:31:45;100772.09;;;26.76;100.00
52947;BME280;45776;40.400;17.260;2022-08-20T19:34:14;100774.75;;;26.74;100.00
52947;BME280;45776;40.400;17.260;2022-08-20T19:36:43;100778.97;;;26.82;100.00
52947;BME280;45776;40.400;17.260;2022-08-20T19:39:17;100766.50;;;26.84;100.00
52947;BME280;45776;40.400;17.260;2022-08-20T19:41:59;100770.31;;;26.75;100.00
52947;BME280;45776;40.400;17.260;2022-08-20T19:44:40;100770.50;;;26.69;100.00
52947;BME280;45776;40.400;17.260;2022-08-20T19:47:13;100768.88;;;26.65;100.00
52947;BME280;45776;40.400;17.260;2022-08-20T19:49:56;100768.53;;;26.75;100.00
52947;BME280;45776;40.400;17.260;2022-08-20T19:52:53;100766.72;;;26.77;100.00
52947;BME280;45776;40.400;17.260;2022-08-20T19:55:25;100765.41;;;26.63;100.00
52947;BME280;45776;40.400;17.260;2022-08-20T19:57:57;100769.44;;;26.48;100.00
52947;BME280;45776;40.400;17.260;2022-08-20T20:00:27;100769.09;;;26.58;100.00
52947;BME280;45776;40.400;17.260;2022-08-20T20:02:54;100770.63;;;26.37;100.00
52947;BME280;45776;40.400;17.260;2022-08-20T20:05:20;100771.13;;;26.50;100.00
52947;BME280;45776;40.400;17.260;2022-08-20T20:07:48;100766.59;;;26.54;100.00
52947;BME280;45776;40.400;17.260;2022-08-20T20:10:34;100764.84;;;26.53;100.00
52947;BME280;45776;40.400;17.260;2022-08-20T20:13:09;100765.47;;;26.61;100.00
52947;BME280;45776;40.400;17.260;2022-08-20T20:15:36;100763.81;;;26.57;100.00
52947;BME280;45776;40.400;17.260;2022-08-20T20:18:02;100760.03;;;26.64;100.00
52947;BME280;45776;40.400;17.260;2022-08-20T20:20:31;100761.81;;;26.64;100.00
52947;BME280;45776;40.400;17.260;2022-08-20T20:23:12;100761.91;;;26.60;100.00
52947;BME280;45776;40.400;17.260;2022-08-20T20:25:41;100763.81;;;26.57;100.00
52947;BME280;45776;40.400;17.260;2022-08-20T20:30:42;100763.25;;;26.47;100.00
52947;BME280;45776;40.400;17.260;2022-08-20T20:33:23;100760.22;;;26.59;100.00
52947;BME280;45776;40.400;17.260;2022-08-20T20:36:00;100752.41;;;26.53;100.00
52947;BME280;45776;40.400;17.260;2022-08-20T20:38:27;100754.41;;;26.47;100.00
52947;BME280;45776;40.400;17.260;2022-08-20T20:40:55;100755.13;;;26.52;100.00
52947;BME280;45776;40.400;17.260;2022-08-20T20:43:29;100757.84;;;26.50;100.00
52947;BME280;45776;40.400;17.260;2022-08-20T20:46:13;100760.22;;;26.58;100.00
52947;BME280;45776;40.400;17.260;2022-08-20T20:48:51;100753.97;;;26.32;100.00
52947;BME280;45776;40.400;17.260;2022-08-20T20:51:35;100764.75;;;26.27;100.00
52947;BME280;45776;40.400;17.260;2022-08-20T20:54:06;100762.13;;;26.26;100.00
52947;BME280;45776;40.400;17.260;2022-08-20T20:56:57;100765.19;;;26.12;100.00
52947;BME280;45776;40.400;17.260;2022-08-20T20:59:22;100772.03;;;26.21;100.00
52947;BME280;45776;40.400;17.260;2022-08-20T21:01:48;100766.22;;;26.08;100.00
52947;BME280;45776;40.400;17.260;2022-08-20T21:04:14;100769.47;;;26.18;100.00
52947;BME280;45776;40.400;17.260;2022-08-20T21:06:39;100764.00;;;26.22;100.00
52947;BME280;45776;40.400;17.260;2022-08-20T21:09:05;100761.50;;;26.18;100.00
52947;BME280;45776;40.400;17.260;2022-08-20T21:11:30;100770.50;;;26.12;100.00
52947;BME280;45776;40.400;17.260;2022-08-20T21:13:56;100765.63;;;25.98;100.00
52947;BME280;45776;40.400;17.260;2022-08-20T21:16:21;100773.66;;;25.95;100.00
52947;BME280;45776;40.400;17.260;2022-08-20T21:18:47;100775.13;;;26.05;100.00
52947;BME280;45776;40.400;17.260;2022-08-20T21:21:13;100772.09;;;25.88;100.00
52947;BME280;45776;40.400;17.260;2022-08-20T21:23:38;100772.16;;;25.86;100.00
52947;BME280;45776;40.400;17.260;2022-08-20T21:26:05;100774.03;;;25.82;100.00
52947;BME280;45776;40.400;17.260;2022-08-20T21:28:31;100781.94;;;25.84;100.00
52947;BME280;45776;40.400;17.260;2022-08-20T21:30:58;100777.19;;;25.95;100.00
52947;BME280;45776;40.400;17.260;2022-08-20T21:33:24;100783.53;;;25.90;100.00
52947;BME280;45776;40.400;17.260;2022-08-20T21:35:50;100779.22;;;25.86;100.00
52947;BME280;45776;40.400;17.260;2022-08-20T21:38:16;100779.84;;;25.95;100.00
52947;BME280;45776;40.400;17.260;2022-08-20T21:40:41;100785.41;;;25.86;100.00
52947;BME280;45776;40.400;17.260;2022-08-20T21:43:07;100793.16;;;25.62;100.00
52947;BME280;45776;40.400;17.260;2022-08-20T21:45:33;100789.72;;;25.59;100.00
52947;BME280;45776;40.400;17.260;2022-08-20T21:47:59;100789.56;;;25.65;100.00
52947;BME280;45776;40.400;17.260;2022-08-20T21:50:25;100794.84;;;25.65;100.00
52947;BME280;45776;40.400;17.260;2022-08-20T21:52:51;100789.56;;;25.65;100.00
52947;BME280;45776;40.400;17.260;2022-08-20T21:55:17;100803.34;;;25.45;100.00
52947;BME280;45776;40.400;17.260;2022-08-20T21:57:42;100799.16;;;25.34;100.00
52947;BME280;45776;40.400;17.260;2022-08-20T22:00:19;100801.03;;;25.31;100.00
52947;BME280;45776;40.400;17.260;2022-08-20T22:03:02;100798.84;;;25.14;100.00
52947;BME280;45776;40.400;17.260;2022-08-20T22:05:28;100795.34;;;25.12;100.00
52947;BME280;45776;40.400;17.260;2022-08-20T22:07:53;100803.19;;;25.16;100.00
52947;BME280;45776;40.400;17.260;2022-08-20T22:10:18;100803.63;;;24.99;100.00
52947;BME280;45776;40.400;17.260;2022-08-20T22:12:44;100802.00;;;24.94;100.00
52947;BME280;45776;40.400;17.260;2022-08-20T22:15:09;100798.19;;;25.04;100.00
52947;BME280;45776;40.400;17.260;2022-08-20T22:17:35;100799.56;;;25.19;100.00
52947;BME280;45776;40.400;17.260;2022-08-20T22:20:01;100797.00;;;25.16;100.00
52947;BME280;45776;40.400;17.260;2022-08-20T22:22:26;100803.97;;;25.20;100.00
52947;BME280;45776;40.400;17.260;2022-08-20T22:24:52;100795.75;;;25.31;100.00
52947;BME280;45776;40.400;17.260;2022-08-20T22:27:17;100794.16;;;25.24;100.00
52947;BME280;45776;40.400;17.260;2022-08-20T22:29:43;100794.00;;;25.30;100.00
52947;BME280;45776;40.400;17.260;2022-08-20T22:32:08;100795.47;;;25.43;100.00
52947;BME280;45776;40.400;17.260;2022-08-20T22:34:34;100795.97;;;25.22;100.00
52947;BME280;45776;40.400;17.260;2022-08-20T22:37:01;100797.09;;;25.13;100.00
52947;BME280;45776;40.400;17.260;2022-08-20T22:39:27;100799.25;;;24.97;100.00
52947;BME280;45776;40.400;17.260;2022-08-20T22:41:52;100801.16;;;24.92;100.00
52947;BME280;45776;40.400;17.260;2022-08-20T22:44:18;100795.13;;;24.86;100.00
52947;BME280;45776;40.400;17.260;2022-08-20T22:46:44;100788.19;;;24.81;100.00
52947;BME280;45776;40.400;17.260;2022-08-20T22:49:12;100782.00;;;24.80;100.00
52947;BME280;45776;40.400;17.260;2022-08-20T22:51:40;100777.59;;;24.81;100.00
52947;BME280;45776;40.400;17.260;2022-08-20T22:54:09;100771.41;;;24.80;100.00
52947;BME280;45776;40.400;17.260;2022-08-20T22:56:36;100775.09;;;24.75;100.00
52947;BME280;45776;40.400;17.260;2022-08-20T22:59:01;100760.84;;;24.79;100.00
52947;BME280;45776;40.400;17.260;2022-08-20T23:01:27;100761.91;;;24.71;100.00
52947;BME280;45776;40.400;17.260;2022-08-20T23:03:55;100761.06;;;24.71;100.00
52947;BME280;45776;40.400;17.260;2022-08-20T23:06:22;100752.13;;;24.75;100.00
52947;BME280;45776;40.400;17.260;2022-08-20T23:08:49;100748.66;;;24.71;100.00
52947;BME280;45776;40.400;17.260;2022-08-20T23:11:14;100747.72;;;24.74;100.00
52947;BME280;45776;40.400;17.260;2022-08-20T23:13:40;100742.53;;;24.71;100.00
52947;BME280;45776;40.400;17.260;2022-08-20T23:16:05;100741.69;;;24.69;100.00
52947;BME280;45776;40.400;17.260;2022-08-20T23:18:31;100746.06;;;24.70;100.00
52947;BME280;45776;40.400;17.260;2022-08-20T23:20:57;100742.53;;;24.69;100.00
52947;BME280;45776;40.400;17.260;2022-08-20T23:23:24;100738.44;;;24.56;100.00
52947;BME280;45776;40.400;17.260;2022-08-20T23:25:50;100735.16;;;24.45;100.00
52947;BME280;45776;40.400;17.260;2022-08-20T23:28:20;100743.19;;;24.41;100.00
52947;BME280;45776;40.400;17.260;2022-08-20T23:30:46;100735.34;;;24.37;100.00
52947;BME280;45776;40.400;17.260;2022-08-20T23:33:12;100733.66;;;24.34;100.00
52947;BME280;45776;40.400;17.260;2022-08-20T23:35:38;100724.03;;;24.30;100.00
52947;BME280;45776;40.400;17.260;2022-08-20T23:38:05;100723.09;;;24.33;100.00
52947;BME280;45776;40.400;17.260;2022-08-20T23:40:32;100716.94;;;24.32;100.00
52947;BME280;45776;40.400;17.260;2022-08-20T23:42:57;100717.00;;;24.29;100.00
52947;BME280;45776;40.400;17.260;2022-08-20T23:45:23;100711.69;;;24.29;100.00
52947;BME280;45776;40.400;17.260;2022-08-20T23:47:49;100716.97;;;24.31;100.00
52947;BME280;45776;40.400;17.260;2022-08-20T23:50:17;100710.00;;;24.26;100.00
52947;BME280;45776;40.400;17.260;2022-08-20T23:52:43;100713.44;;;24.30;100.00
52947;BME280;45776;40.400;17.260;2022-08-20T23:55:09;100719.63;;;24.29;100.00
52947;BME280;45776;40.400;17.260;2022-08-20T23:57:36;100721.47;;;24.27;100.00
